Terminal Aerodrome Forecast
Issued by NWS Billings, MT

Home | Current Version | Previous Version | Graphics & Text | Print | Product List | Glossary On
Versions: 1 2 3 4 5 6 7 8 9 10 11 12 13 14 15 16 17 18 19 20 21 22 23 24 25 26 27 28
000
FTUS45 KBYZ 281423 AAA
TAFMLS
TAF AMD
KMLS 281423Z 2814/2912 15005KT 5SM -SN SCT025 BKN050
     FM281700 06011KT 1SM -SN OVC010
     FM282200 03015KT 1/2SM SN OVC005=

USA.gov is the U.S. government's official web portal to all federal, state and local government web resources and services.